Time;durP1;ratioP1;P1;durP2;ratioP2;P2;SDS_P1;SDS_P2;PMS_P1;PMS_P2;Temp;Humidity;BMP_temperature;BMP_pressure;BME280_temperature;BME280_humidity;BME280_pressure;Samples;Min_cycle;Max_cycle;Signal;HPM_P1;HPM_P2
2022/05/21 00:00:21;;;;;;;;;;;21.50;97.20;;;;;;5058326;28;19925;-77
2022/05/21 00:02:48;;;;;;;;;;;21.50;96.50;;;;;;5057780;28;19932;-76
2022/05/21 00:05:17;;;;;;;;;;;21.50;96.60;;;;;;5053362;28;20012;-75
2022/05/21 00:07:44;;;;;;;;;;;21.50;96.50;;;;;;5057091;28;20379;-76
2022/05/21 00:10:13;;;;;;;;;;;21.40;96.50;;;;;;5052742;28;20615;-76
2022/05/21 00:12:41;;;;;;;;;;;21.40;96.50;;;;;;5058608;28;19932;-76
2022/05/21 00:15:09;;;;;;;;;;;21.40;96.40;;;;;;5055577;28;19982;-76
2022/05/21 00:17:36;;;;;;;;;;;21.30;96.30;;;;;;5055171;28;19935;-76
2022/05/21 00:20:03;;;;;;;;;;;21.30;96.20;;;;;;5057541;28;21905;-76
2022/05/21 00:22:32;;;;;;;;;;;21.30;96.30;;;;;;5055412;28;19978;-75
2022/05/21 00:24:59;;;;;;;;;;;21.20;96.20;;;;;;5053796;28;19944;-76
2022/05/21 00:27:25;;;;;;;;;;;21.20;96.10;;;;;;5056926;28;19925;-76
2022/05/21 00:29:52;;;;;;;;;;;21.20;96.10;;;;;;5050392;28;19928;-76
2022/05/21 00:32:19;;;;;;;;;;;21.10;96.10;;;;;;5070162;28;19929;-76
2022/05/21 00:34:46;;;;;;;;;;;21.10;96.10;;;;;;5059949;28;19925;-76
2022/05/21 00:37:13;;;;;;;;;;;21.00;96.00;;;;;;5051771;28;20377;-75
2022/05/21 00:39:41;;;;;;;;;;;21.00;96.00;;;;;;5053907;28;19931;-75
2022/05/21 00:42:09;;;;;;;;;;;20.90;96.20;;;;;;5055388;28;19939;-76
2022/05/21 00:44:36;;;;;;;;;;;20.90;95.90;;;;;;5050788;28;20517;-76
2022/05/21 00:47:02;;;;;;;;;;;20.80;95.90;;;;;;5052755;28;20030;-76
2022/05/21 00:49:32;;;;;;;;;;;20.80;95.80;;;;;;5050725;28;20011;-76
2022/05/21 00:52:02;;;;;;;;;;;20.70;95.90;;;;;;5055875;28;20415;-76
2022/05/21 00:54:31;;;;;;;;;;;20.70;95.80;;;;;;5055677;28;19938;-76
2022/05/21 00:57:01;;;;;;;;;;;20.60;95.70;;;;;;5052964;28;20055;-76
2022/05/21 01:02:13;;;;;;;;;;;20.60;95.60;;;;;;5058207;28;20348;-76
2022/05/21 01:04:42;;;;;;;;;;;20.50;99.90;;;;;;5056077;28;19960;-76
2022/05/21 01:07:09;;;;;;;;;;;20.40;99.90;;;;;;5052500;28;19929;-76
2022/05/21 01:09:39;;;;;;;;;;;20.40;95.50;;;;;;5051773;28;20444;-76
2022/05/21 01:12:09;;;;;;;;;;;20.40;95.50;;;;;;5056551;28;19946;-76
2022/05/21 01:14:36;;;;;;;;;;;20.30;95.50;;;;;;5057505;28;19968;-76
2022/05/21 01:17:04;;;;;;;;;;;20.30;95.50;;;;;;5052933;28;19932;-76
2022/05/21 01:19:31;;;;;;;;;;;20.30;96.30;;;;;;5053005;28;19924;-76
2022/05/21 01:21:58;;;;;;;;;;;20.30;95.60;;;;;;5055257;28;19930;-76
2022/05/21 01:24:27;;;;;;;;;;;20.30;95.60;;;;;;5054457;28;19929;-76
2022/05/21 01:26:54;;;;;;;;;;;20.20;95.60;;;;;;5055094;28;19924;-76
2022/05/21 01:29:23;;;;;;;;;;;20.20;95.60;;;;;;5052672;28;19924;-76
2022/05/21 01:31:51;;;;;;;;;;;20.20;95.50;;;;;;5057758;28;19967;-75
2022/05/21 01:34:19;;;;;;;;;;;20.20;95.60;;;;;;5053232;28;19960;-75
2022/05/21 01:36:46;;;;;;;;;;;20.10;95.50;;;;;;5143525;22;20475;-76
2022/05/21 01:39:13;;;;;;;;;;;20.10;95.50;;;;;;5073117;28;19946;-76
2022/05/21 01:41:43;;;;;;;;;;;20.10;95.50;;;;;;5074309;28;19924;-76
2022/05/21 01:46:54;;;;;;;;;;;;;;;;;;5056915;28;19928;-76
2022/05/21 01:49:21;;;;;;;;;;;20.00;95.20;;;;;;5058177;28;19924;-76
2022/05/21 01:51:48;;;;;;;;;;;19.90;95.50;;;;;;5052346;28;20003;-77
2022/05/21 01:54:15;;;;;;;;;;;19.90;95.50;;;;;;5055079;28;20030;-76
2022/05/21 01:56:44;;;;;;;;;;;19.90;95.50;;;;;;5055783;28;19975;-76
2022/05/21 01:59:11;;;;;;;;;;;19.90;95.50;;;;;;5050112;28;19958;-76
2022/05/21 02:01:38;;;;;;;;;;;19.90;95.50;;;;;;5055102;28;20042;-76
2022/05/21 02:04:05;;;;;;;;;;;19.90;95.50;;;;;;5055951;28;20424;-74
2022/05/21 02:06:32;;;;;;;;;;;19.90;95.60;;;;;;5050521;28;19928;-75
2022/05/21 02:08:59;;;;;;;;;;;19.80;95.50;;;;;;5056060;28;19929;-76
2022/05/21 02:11:26;;;;;;;;;;;19.80;95.60;;;;;;5055435;28;19932;-76
2022/05/21 02:13:55;;;;;;;;;;;19.70;95.50;;;;;;5054641;28;20562;-76
2022/05/21 02:16:22;;;;;;;;;;;19.80;95.60;;;;;;5056465;28;21023;-76
2022/05/21 02:18:49;;;;;;;;;;;19.70;95.50;;;;;;5056932;28;19975;-75
2022/05/21 02:21:17;;;;;;;;;;;19.70;95.50;;;;;;5054041;28;20276;-77
2022/05/21 02:23:44;;;;;;;;;;;19.70;95.60;;;;;;5053061;28;20037;-76
2022/05/21 02:26:11;;;;;;;;;;;19.60;95.50;;;;;;5060317;28;19925;-76
2022/05/21 02:28:38;;;;;;;;;;;19.60;95.50;;;;;;5057983;28;20511;-74
2022/05/21 02:31:06;;;;;;;;;;;19.60;95.50;;;;;;5054099;28;19932;-75
2022/05/21 02:33:33;;;;;;;;;;;17.60;94.50;;;;;;5057716;28;20186;-75
2022/05/21 02:36:00;;;;;;;;;;;19.60;95.50;;;;;;5059405;28;19936;-75
2022/05/21 02:41:12;;;;;;;;;;;19.50;95.30;;;;;;5060028;28;20011;-76
2022/05/21 02:43:39;;;;;;;;;;;19.50;95.40;;;;;;5056814;28;19928;-75
2022/05/21 02:46:07;;;;;;;;;;;19.50;95.40;;;;;;5049291;28;19935;-74
2022/05/21 02:48:34;;;;;;;;;;;19.50;95.40;;;;;;5062290;28;19987;-75
2022/05/21 02:51:01;;;;;;;;;;;19.40;95.60;;;;;;5059993;28;19977;-76
2022/05/21 02:53:28;;;;;;;;;;;19.40;95.30;;;;;;5059723;28;19928;-76
2022/05/21 02:55:57;;;;;;;;;;;19.40;95.40;;;;;;5059638;28;20364;-76
2022/05/21 02:58:24;;;;;;;;;;;;;;;;;;5063797;28;20027;-76
2022/05/21 03:00:51;;;;;;;;;;;19.30;95.10;;;;;;5061852;28;20019;-75
2022/05/21 03:03:20;;;;;;;;;;;19.30;95.30;;;;;;5064320;28;20394;-74
2022/05/21 03:05:47;;;;;;;;;;;19.30;95.30;;;;;;5056333;28;19932;-76
2022/05/21 03:10:58;;;;;;;;;;;19.20;95.30;;;;;;5058579;28;19925;-75
2022/05/21 03:13:25;;;;;;;;;;;19.20;95.30;;;;;;5059716;28;19978;-76
2022/05/21 03:15:52;;;;;;;;;;;19.20;95.30;;;;;;5055286;28;20291;-74
2022/05/21 03:18:21;;;;;;;;;;;19.10;94.90;;;;;;5056407;28;19930;-76
2022/05/21 03:20:48;;;;;;;;;;;19.10;95.20;;;;;;5059584;28;19929;-75
2022/05/21 03:23:15;;;;;;;;;;;19.10;95.10;;;;;;5060354;28;20306;-74
2022/05/21 03:25:42;;;;;;;;;;;19.10;95.10;;;;;;5056956;28;19936;-75
2022/05/21 03:28:13;;;;;;;;;;;19.00;95.00;;;;;;5061926;28;20296;-74
2022/05/21 03:30:40;;;;;;;;;;;19.00;95.00;;;;;;5059064;28;19958;-75
2022/05/21 03:33:07;;;;;;;;;;;19.00;95.00;;;;;;5058915;28;20341;-75
2022/05/21 03:35:35;;;;;;;;;;;18.90;95.00;;;;;;5055462;28;19924;-76
2022/05/21 03:38:04;;;;;;;;;;;18.80;94.90;;;;;;5052740;28;20176;-74
2022/05/21 03:40:31;;;;;;;;;;;18.90;95.00;;;;;;5057743;28;20360;-75
2022/05/21 03:42:59;;;;;;;;;;;18.80;94.90;;;;;;5059273;28;19940;-75
2022/05/21 03:45:27;;;;;;;;;;;18.80;94.80;;;;;;5056392;28;19938;-75
2022/05/21 03:47:54;;;;;;;;;;;18.70;94.80;;;;;;5055366;28;19932;-75
2022/05/21 03:50:22;;;;;;;;;;;18.70;94.70;;;;;;5058484;28;19932;-75
2022/05/21 03:52:50;;;;;;;;;;;18.70;94.60;;;;;;5069772;28;19978;-75
2022/05/21 03:55:18;;;;;;;;;;;18.60;94.50;;;;;;5067220;28;19928;-75
2022/05/21 03:57:46;;;;;;;;;;;18.60;94.50;;;;;;5059061;28;19983;-75
2022/05/21 04:00:14;;;;;;;;;;;18.50;94.50;;;;;;5060120;28;20007;-75
2022/05/21 04:02:41;;;;;;;;;;;18.50;94.40;;;;;;5060065;28;19924;-74
2022/05/21 04:05:09;;;;;;;;;;;18.50;94.40;;;;;;5056070;28;20023;-74
2022/05/21 04:07:36;;;;;;;;;;;18.40;94.40;;;;;;5060744;28;20390;-75
2022/05/21 04:10:05;;;;;;;;;;;18.40;94.40;;;;;;5061359;28;19937;-75
2022/05/21 04:12:32;;;;;;;;;;;18.40;94.30;;;;;;5058411;28;19924;-75
2022/05/21 04:15:00;;;;;;;;;;;18.40;94.40;;;;;;5059798;28;20043;-75
2022/05/21 04:17:27;;;;;;;;;;;18.40;94.40;;;;;;5056203;28;19931;-75
2022/05/21 04:19:55;;;;;;;;;;;18.40;94.40;;;;;;5056183;28;19928;-74
2022/05/21 04:22:21;;;;;;;;;;;18.30;94.30;;;;;;5062461;28;20292;-75
2022/05/21 04:24:48;;;;;;;;;;;18.30;94.40;;;;;;5059438;28;19935;-75
2022/05/21 04:27:17;;;;;;;;;;;18.20;94.30;;;;;;5056184;28;20019;-74
2022/05/21 04:29:44;;;;;;;;;;;18.20;94.40;;;;;;5055984;28;20011;-75
2022/05/21 04:32:11;;;;;;;;;;;18.20;94.40;;;;;;5056995;28;19924;-75
2022/05/21 04:34:37;;;;;;;;;;;18.20;94.40;;;;;;5059883;28;19967;-75
2022/05/21 04:37:05;;;;;;;;;;;18.20;94.40;;;;;;5056038;28;19933;-75
2022/05/21 04:39:32;;;;;;;;;;;18.10;94.40;;;;;;5057123;28;20017;-75
2022/05/21 04:42:00;;;;;;;;;;;18.10;94.30;;;;;;5057022;28;20425;-75
2022/05/21 04:44:31;;;;;;;;;;;18.10;94.30;;;;;;5054999;28;20379;-76
2022/05/21 04:46:58;;;;;;;;;;;18.10;94.30;;;;;;5055891;28;20043;-76
2022/05/21 04:49:25;;;;;;;;;;;18.00;94.30;;;;;;5056570;28;19996;-76
2022/05/21 04:51:52;;;;;;;;;;;18.00;94.30;;;;;;5057683;28;19932;-76
2022/05/21 04:54:18;;;;;;;;;;;18.00;94.20;;;;;;5057390;28;20390;-75
2022/05/21 04:56:45;;;;;;;;;;;17.90;94.20;;;;;;5058717;28;20593;-74
2022/05/21 04:59:13;;;;;;;;;;;17.90;94.10;;;;;;5057565;28;20586;-74
2022/05/21 05:01:41;;;;;;;;;;;17.90;94.10;;;;;;5073000;28;19925;-76
2022/05/21 05:04:08;;;;;;;;;;;17.90;94.10;;;;;;5056986;28;20453;-76
2022/05/21 05:06:36;;;;;;;;;;;17.80;94.00;;;;;;5057760;28;20510;-75
2022/05/21 05:09:03;;;;;;;;;;;17.80;94.00;;;;;;5058396;28;19968;-75
2022/05/21 05:11:30;;;;;;;;;;;17.80;94.10;;;;;;5057884;28;19932;-75
2022/05/21 05:13:57;;;;;;;;;;;17.80;94.10;;;;;;5059886;28;19978;-75
2022/05/21 05:16:24;;;;;;;;;;;17.70;94.00;;;;;;5059128;28;19924;-75
2022/05/21 05:18:53;;;;;;;;;;;17.70;94.00;;;;;;5055323;28;20275;-75
2022/05/21 05:21:20;;;;;;;;;;;17.70;94.00;;;;;;5056147;28;19928;-74
2022/05/21 05:23:47;;;;;;;;;;;17.70;94.00;;;;;;5055705;28;20031;-76
2022/05/21 05:26:15;;;;;;;;;;;17.60;94.00;;;;;;5060799;28;19924;-75
2022/05/21 05:28:45;;;;;;;;;;;17.60;94.00;;;;;;5052349;28;19935;-75
2022/05/21 05:31:11;;;;;;;;;;;17.60;94.00;;;;;;5053327;28;19983;-75
2022/05/21 05:33:38;;;;;;;;;;;17.60;93.90;;;;;;5055204;28;19929;-75
2022/05/21 05:36:07;;;;;;;;;;;17.60;94.00;;;;;;5075472;28;20026;-74
2022/05/21 05:38:36;;;;;;;;;;;17.50;93.80;;;;;;5058188;28;20892;-76
2022/05/21 05:41:06;;;;;;;;;;;17.40;93.80;;;;;;5053726;28;19933;-75
2022/05/21 05:43:33;;;;;;;;;;;17.40;93.70;;;;;;5054112;28;19925;-75
2022/05/21 05:46:00;;;;;;;;;;;17.30;93.90;;;;;;5057527;28;20004;-75
2022/05/21 05:48:27;;;;;;;;;;;17.30;93.80;;;;;;5052516;28;19932;-74
2022/05/21 05:50:54;;;;;;;;;;;17.20;93.90;;;;;;5054526;28;19931;-75
2022/05/21 05:53:24;;;;;;;;;;;17.20;94.00;;;;;;5053781;28;19986;-75
2022/05/21 05:55:51;;;;;;;;;;;17.20;93.80;;;;;;5057086;28;19979;-76
2022/05/21 06:01:02;;;;;;;;;;;17.10;93.70;;;;;;5058318;28;19998;-74
2022/05/21 06:03:29;;;;;;;;;;;17.10;93.70;;;;;;5050780;28;19925;-75
2022/05/21 06:05:56;;;;;;;;;;;17.10;93.80;;;;;;5055908;28;20460;-76
2022/05/21 06:08:24;;;;;;;;;;;17.00;93.70;;;;;;5053387;28;20279;-75
2022/05/21 06:10:51;;;;;;;;;;;17.00;93.70;;;;;;5072112;28;19963;-76
2022/05/21 06:13:18;;;;;;;;;;;17.00;93.70;;;;;;5058403;28;19928;-76
2022/05/21 06:15:45;;;;;;;;;;;17.00;93.80;;;;;;5050385;28;19931;-75
2022/05/21 06:18:13;;;;;;;;;;;17.00;93.80;;;;;;5056339;28;19934;-75
2022/05/21 06:20:40;;;;;;;;;;;17.00;93.80;;;;;;5061590;28;19936;-75
2022/05/21 06:23:07;;;;;;;;;;;17.00;93.70;;;;;;5064520;28;20023;-74
2022/05/21 06:25:36;;;;;;;;;;;17.00;93.70;;;;;;5057308;28;20804;-76
2022/05/21 06:28:04;;;;;;;;;;;17.00;93.60;;;;;;5067030;28;19924;-77
2022/05/21 06:30:31;;;;;;;;;;;17.00;93.50;;;;;;5059821;28;21320;-74
2022/05/21 06:32:59;;;;;;;;;;;17.00;93.40;;;;;;5055152;28;19931;-75
2022/05/21 06:35:27;;;;;;;;;;;16.90;93.40;;;;;;5054553;28;19933;-75
2022/05/21 06:37:54;;;;;;;;;;;17.00;93.50;;;;;;5064282;28;19939;-75
2022/05/21 06:40:21;;;;;;;;;;;17.00;93.40;;;;;;5061574;28;20588;-75
2022/05/21 06:42:50;;;;;;;;;;;17.00;93.30;;;;;;5071694;28;19925;-75
2022/05/21 06:45:16;;;;;;;;;;;17.00;93.20;;;;;;5060759;28;19940;-75
2022/05/21 06:47:44;;;;;;;;;;;16.90;93.20;;;;;;5059444;28;19936;-74
2022/05/21 06:50:11;;;;;;;;;;;16.90;92.90;;;;;;5053295;28;19932;-76
2022/05/21 06:52:39;;;;;;;;;;;16.90;92.90;;;;;;5057913;28;20001;-80
2022/05/21 06:55:06;;;;;;;;;;;16.90;92.80;;;;;;5061353;28;20345;-82
2022/05/21 06:57:35;;;;;;;;;;;16.90;92.60;;;;;;5055723;28;19929;-75
2022/05/21 07:00:04;;;;;;;;;;;16.90;92.20;;;;;;5055394;28;20384;-80
2022/05/21 07:02:31;;;;;;;;;;;16.80;91.80;;;;;;5058561;28;19995;-76
2022/05/21 07:07:51;;;;;;;;;;;16.90;92.80;;;;;;5032227;28;19927;-78
2022/05/21 07:10:19;;;;;;;;;;;16.90;92.60;;;;;;5059550;28;19925;-78
2022/05/21 07:12:46;;;;;;;;;;;16.90;92.40;;;;;;5058077;28;19956;-79
2022/05/21 07:15:15;;;;;;;;;;;17.00;92.50;;;;;;5057293;28;19940;-75
2022/05/21 07:17:42;;;;;;;;;;;16.90;92.00;;;;;;5055475;28;19925;-75
2022/05/21 07:20:10;;;;;;;;;;;16.90;92.30;;;;;;5049515;28;19925;-75
2022/05/21 07:22:39;;;;;;;;;;;16.90;92.30;;;;;;5060851;28;20023;-75
2022/05/21 07:25:07;;;;;;;;;;;16.90;91.80;;;;;;5061632;28;19925;-75
2022/05/21 07:27:34;;;;;;;;;;;16.90;92.00;;;;;;5059334;28;19931;-75
2022/05/21 07:30:01;;;;;;;;;;;16.80;91.10;;;;;;5060457;28;19933;-75
2022/05/21 07:32:29;;;;;;;;;;;16.80;91.20;;;;;;5059836;28;20306;-75
2022/05/21 07:34:57;;;;;;;;;;;16.80;91.70;;;;;;5055299;28;20302;-75
2022/05/21 07:37:24;;;;;;;;;;;16.80;91.90;;;;;;5060804;28;20383;-74
2022/05/21 07:39:51;;;;;;;;;;;16.80;91.90;;;;;;5058194;28;20654;-74
2022/05/21 07:42:18;;;;;;;;;;;16.80;90.90;;;;;;5058774;28;19960;-75
2022/05/21 07:44:45;;;;;;;;;;;16.80;91.90;;;;;;5059231;28;19939;-74
2022/05/21 07:47:12;;;;;;;;;;;16.70;91.60;;;;;;5060581;28;19951;-75
2022/05/21 07:49:40;;;;;;;;;;;16.80;91.60;;;;;;5058532;28;19931;-74
2022/05/21 07:52:08;;;;;;;;;;;16.80;91.20;;;;;;5054540;28;19946;-74
2022/05/21 07:54:34;;;;;;;;;;;16.70;90.90;;;;;;5060147;28;19932;-75
2022/05/21 07:57:02;;;;;;;;;;;16.70;91.10;;;;;;5056633;28;19936;-75
2022/05/21 07:59:29;;;;;;;;;;;16.80;91.50;;;;;;5061036;28;19925;-74
2022/05/21 08:01:56;;;;;;;;;;;16.80;91.20;;;;;;5057313;28;19932;-75
2022/05/21 08:04:23;;;;;;;;;;;16.70;91.20;;;;;;5062261;28;20025;-73
2022/05/21 08:06:51;;;;;;;;;;;16.70;91.40;;;;;;5057503;28;20297;-74
2022/05/21 08:09:21;;;;;;;;;;;16.70;91.40;;;;;;5058395;28;19931;-74
2022/05/21 08:11:49;;;;;;;;;;;16.70;91.10;;;;;;5062436;28;20293;-77
2022/05/21 08:14:16;;;;;;;;;;;16.70;91.50;;;;;;5051500;28;20007;-73
2022/05/21 08:16:43;;;;;;;;;;;16.70;91.10;;;;;;5062387;28;19933;-74
2022/05/21 08:19:12;;;;;;;;;;;16.70;90.70;;;;;;5060181;28;19960;-74
2022/05/21 08:21:39;;;;;;;;;;;16.60;90.90;;;;;;5057915;28;20383;-77
2022/05/21 08:26:59;;;;;;;;;;;16.60;90.70;;;;;;5057282;28;21380;-74
2022/05/21 08:29:26;;;;;;;;;;;16.60;90.70;;;;;;5053866;28;19932;-75
2022/05/21 08:31:53;;;;;;;;;;;16.60;90.60;;;;;;5061782;28;19928;-75
2022/05/21 08:34:20;;;;;;;;;;;16.60;91.10;;;;;;5064981;28;20376;-76
2022/05/21 08:36:48;;;;;;;;;;;16.60;91.20;;;;;;5059566;28;19933;-75
2022/05/21 08:39:16;;;;;;;;;;;16.70;90.80;;;;;;5061869;28;19924;-74
2022/05/21 08:41:47;;;;;;;;;;;16.60;90.50;;;;;;5063762;28;19986;-74
2022/05/21 08:44:18;;;;;;;;;;;16.60;90.60;;;;;;5054013;28;19924;-75
2022/05/21 08:46:50;;;;;;;;;;;16.60;90.70;;;;;;5046405;28;20294;-75
2022/05/21 08:49:20;;;;;;;;;;;16.60;90.20;;;;;;5060307;28;19936;-78
2022/05/21 08:51:50;;;;;;;;;;;16.60;90.80;;;;;;5057660;28;19932;-76
2022/05/21 08:54:22;;;;;;;;;;;16.60;90.50;;;;;;5063699;28;19928;-81
2022/05/21 08:56:50;;;;;;;;;;;16.60;90.20;;;;;;5055809;28;19925;-78
2022/05/21 08:59:19;;;;;;;;;;;16.60;90.60;;;;;;5061493;28;19928;-76
2022/05/21 09:01:47;;;;;;;;;;;16.60;90.50;;;;;;5059904;28;19925;-76
2022/05/21 09:04:14;;;;;;;;;;;16.60;90.20;;;;;;5055905;28;19936;-76
2022/05/21 09:06:47;;;;;;;;;;;16.50;90.60;;;;;;5062110;28;19924;-75
2022/05/21 09:09:20;;;;;;;;;;;16.60;90.60;;;;;;5056096;28;19931;-75
2022/05/21 09:11:49;;;;;;;;;;;16.60;91.10;;;;;;5059030;28;19931;-75
2022/05/21 09:14:17;;;;;;;;;;;16.60;91.40;;;;;;5058849;28;20314;-74
2022/05/21 09:16:55;;;;;;;;;;;16.60;91.40;;;;;;5059534;28;19926;-74
2022/05/21 09:19:24;;;;;;;;;;;16.60;91.40;;;;;;5059840;28;20402;-74
2022/05/21 09:21:55;;;;;;;;;;;16.60;91.60;;;;;;5058018;28;19932;-74
2022/05/21 09:24:36;;;;;;;;;;;16.60;91.60;;;;;;5058552;28;19928;-74
2022/05/21 09:27:05;;;;;;;;;;;16.60;91.40;;;;;;5043885;28;20045;-74
2022/05/21 09:29:35;;;;;;;;;;;16.50;91.30;;;;;;5054306;28;20353;-74
2022/05/21 09:32:17;;;;;;;;;;;16.50;90.90;;;;;;5047933;28;19932;-75
2022/05/21 09:34:44;;;;;;;;;;;16.50;90.70;;;;;;5051102;28;20009;-73
2022/05/21 09:37:15;;;;;;;;;;;16.50;90.80;;;;;;5051193;28;20079;-77
2022/05/21 09:39:42;;;;;;;;;;;16.60;91.30;;;;;;5130060;22;19925;-77
2022/05/21 09:47:43;;;;;;;;;;;16.60;91.40;;;;;;5071685;28;19925;-76
2022/05/21 09:50:11;;;;;;;;;;;16.60;91.40;;;;;;5066076;28;20370;-76
2022/05/21 09:52:38;;;;;;;;;;;16.60;91.40;;;;;;5066849;28;19936;-77
2022/05/21 09:55:18;;;;;;;;;;;16.60;91.50;;;;;;5074000;28;19978;-76
2022/05/21 09:57:46;;;;;;;;;;;16.60;91.50;;;;;;5075642;28;19924;-76
2022/05/21 10:00:17;;;;;;;;;;;16.60;91.50;;;;;;5076745;28;19938;-75
2022/05/21 10:02:45;;;;;;;;;;;16.60;91.40;;;;;;5079169;28;19933;-77
2022/05/21 10:05:14;;;;;;;;;;;16.60;91.50;;;;;;5082185;28;20298;-77
2022/05/21 10:13:08;;;;;;;;;;;16.60;91.00;;;;;;5039088;28;20062;-75
2022/05/21 10:15:39;;;;;;;;;;;16.60;90.60;;;;;;5038751;28;19995;-74
2022/05/21 10:18:13;;;;;;;;;;;16.70;91.10;;;;;;5039918;28;19924;-75
2022/05/21 10:20:41;;;;;;;;;;;16.70;90.70;;;;;;5034143;28;19933;-75
2022/05/21 10:23:11;;;;;;;;;;;16.70;91.00;;;;;;5035832;28;19988;-75
2022/05/21 10:25:43;;;;;;;;;;;16.70;90.80;;;;;;5032957;28;19933;-73
2022/05/21 10:28:19;;;;;;;;;;;16.70;90.80;;;;;;5035741;28;20366;-76
2022/05/21 10:31:04;;;;;;;;;;;16.70;90.60;;;;;;5053105;28;19955;-74
2022/05/21 10:33:41;;;;;;;;;;;16.70;90.40;;;;;;5035637;28;20007;-73
2022/05/21 10:36:22;;;;;;;;;;;16.70;90.30;;;;;;5043699;28;20301;-75
2022/05/21 10:39:02;;;;;;;;;;;16.70;90.40;;;;;;5021790;28;19933;-75
2022/05/21 10:41:40;;;;;;;;;;;16.80;90.70;;;;;;5028414;28;20072;-74
2022/05/21 10:44:18;;;;;;;;;;;16.80;90.60;;;;;;5038444;28;19933;-73
2022/05/21 10:46:51;;;;;;;;;;;16.80;90.80;;;;;;5035116;28;20006;-75
2022/05/21 10:49:30;;;;;;;;;;;16.80;90.80;;;;;;5029982;28;19933;-75
2022/05/21 10:52:00;;;;;;;;;;;16.80;90.80;;;;;;5023292;28;20363;-75
2022/05/21 10:54:35;;;;;;;;;;;16.80;90.90;;;;;;5032837;28;20338;-75
2022/05/21 10:57:10;;;;;;;;;;;16.90;91.00;;;;;;5034866;28;19933;-76
2022/05/21 10:59:48;;;;;;;;;;;16.90;91.00;;;;;;5025987;28;20410;-75
2022/05/21 11:02:32;;;;;;;;;;;16.90;90.90;;;;;;5026161;28;20035;-75
2022/05/21 11:05:08;;;;;;;;;;;17.00;91.10;;;;;;5042064;28;19933;-74
2022/05/21 11:07:41;;;;;;;;;;;17.10;90.80;;;;;;5032138;28;19933;-75
2022/05/21 11:10:14;;;;;;;;;;;17.10;90.80;;;;;;5037245;28;19932;-75
2022/05/21 11:12:46;;;;;;;;;;;17.10;91.00;;;;;;5031689;28;19925;-76
2022/05/21 11:15:21;;;;;;;;;;;17.10;91.10;;;;;;5040714;28;19929;-75
2022/05/21 11:17:52;;;;;;;;;;;17.10;90.70;;;;;;5042077;28;19924;-75
2022/05/21 11:20:21;;;;;;;;;;;17.10;90.80;;;;;;5038504;28;20024;-76
2022/05/21 11:22:50;;;;;;;;;;;17.10;90.70;;;;;;5034323;28;19987;-75
2022/05/21 11:25:19;;;;;;;;;;;17.10;90.70;;;;;;5037524;28;19933;-74
2022/05/21 11:27:50;;;;;;;;;;;17.10;90.60;;;;;;5030562;28;19932;-74
2022/05/21 11:30:20;;;;;;;;;;;17.10;90.30;;;;;;5024501;28;19932;-75
2022/05/21 11:38:21;;;;;;;;;;;17.30;89.50;;;;;;5041549;28;19951;-75
2022/05/21 11:46:59;;;;;;;;;;;17.30;88.60;;;;;;5037593;28;19937;-75
2022/05/21 11:49:40;;;;;;;;;;;17.40;89.10;;;;;;5030582;28;19929;-75
2022/05/21 11:52:39;;;;;;;;;;;17.40;90.00;;;;;;5032644;28;19932;-74
2022/05/21 11:55:18;;;;;;;;;;;17.40;89.90;;;;;;4970173;28;19933;-74
2022/05/21 11:57:45;;;;;;;;;;;17.40;90.00;;;;;;5026406;28;19936;-75
2022/05/21 12:00:27;;;;;;;;;;;17.50;89.90;;;;;;5040187;28;19932;-74
2022/05/21 12:03:10;;;;;;;;;;;17.50;89.90;;;;;;5036685;28;20362;-74
2022/05/21 12:05:58;;;;;;;;;;;17.60;90.00;;;;;;5031468;28;20465;-74
2022/05/21 12:08:43;;;;;;;;;;;17.60;89.80;;;;;;5031569;28;19936;-74
2022/05/21 12:11:12;;;;;;;;;;;17.60;90.10;;;;;;5035635;28;20015;-75
2022/05/21 12:14:00;;;;;;;;;;;17.70;89.90;;;;;;5036662;28;19932;-74
2022/05/21 12:16:44;;;;;;;;;;;17.80;89.90;;;;;;5033034;28;19929;-75
2022/05/21 12:19:11;;;;;;;;;;;17.80;90.10;;;;;;5038174;28;19932;-76
2022/05/21 12:21:53;;;;;;;;;;;17.90;90.10;;;;;;5032353;28;20426;-75
2022/05/21 12:24:35;;;;;;;;;;;17.90;90.00;;;;;;5032633;28;19929;-74
2022/05/21 12:27:05;;;;;;;;;;;17.90;90.20;;;;;;5024496;28;19933;-75
2022/05/21 12:29:41;;;;;;;;;;;18.00;90.20;;;;;;5032474;28;20300;-73
2022/05/21 12:32:12;;;;;;;;;;;18.10;90.10;;;;;;5033207;28;19964;-75
2022/05/21 12:34:52;;;;;;;;;;;18.10;90.30;;;;;;5024838;28;20205;-75
2022/05/21 12:37:21;;;;;;;;;;;18.10;90.10;;;;;;5048167;28;19944;-74
2022/05/21 12:39:57;;;;;;;;;;;18.20;90.30;;;;;;5043369;28;19960;-75
2022/05/21 12:42:29;;;;;;;;;;;18.30;90.50;;;;;;5039001;28;20012;-75
2022/05/21 12:44:55;;;;;;;;;;;18.30;90.30;;;;;;5035486;28;19932;-74
2022/05/21 12:47:28;;;;;;;;;;;18.30;90.10;;;;;;5027039;28;20014;-72
2022/05/21 12:49:55;;;;;;;;;;;18.30;90.30;;;;;;5037068;28;20357;-72
2022/05/21 12:52:29;;;;;;;;;;;18.40;90.60;;;;;;5038478;28;20409;-73
2022/05/21 12:55:15;;;;;;;;;;;18.40;90.50;;;;;;5036536;28;20051;-74
2022/05/21 12:57:44;;;;;;;;;;;18.50;90.50;;;;;;5036132;28;19952;-74
2022/05/21 13:00:12;;;;;;;;;;;18.60;90.40;;;;;;5041646;28;19928;-72
2022/05/21 13:02:40;;;;;;;;;;;18.60;90.30;;;;;;5042404;28;19925;-74
2022/05/21 13:05:08;;;;;;;;;;;18.70;90.10;;;;;;5041274;28;20554;-74
2022/05/21 13:07:37;;;;;;;;;;;18.70;90.10;;;;;;5054843;28;19932;-72
2022/05/21 13:10:06;;;;;;;;;;;18.70;90.40;;;;;;5038229;28;19940;-74
2022/05/21 13:12:34;;;;;;;;;;;18.80;90.20;;;;;;5034226;28;20019;-72
2022/05/21 13:15:03;;;;;;;;;;;18.80;90.50;;;;;;5035899;28;20460;-74
2022/05/21 13:17:32;;;;;;;;;;;18.90;90.70;;;;;;5040081;28;19928;-74
2022/05/21 13:20:20;;;;;;;;;;;18.90;90.70;;;;;;5035468;28;19929;-73
2022/05/21 13:22:55;;;;;;;;;;;19.00;90.40;;;;;;5031734;28;19931;-74
2022/05/21 13:25:22;;;;;;;;;;;19.00;90.60;;;;;;5048042;28;20290;-73
2022/05/21 13:27:50;;;;;;;;;;;19.00;90.60;;;;;;5033572;28;19933;-74
2022/05/21 13:30:20;;;;;;;;;;;19.10;90.30;;;;;;5034192;28;19951;-74
2022/05/21 13:32:53;;;;;;;;;;;19.10;90.60;;;;;;5039678;28;19925;-73
2022/05/21 13:35:22;;;;;;;;;;;19.10;90.50;;;;;;5036634;28;19937;-74
2022/05/21 13:37:50;;;;;;;;;;;19.20;90.70;;;;;;5034343;28;20042;-74
2022/05/21 13:40:19;;;;;;;;;;;19.30;90.30;;;;;;5039094;28;20015;-73
2022/05/21 13:42:50;;;;;;;;;;;19.30;90.10;;;;;;5032329;28;20447;-74
2022/05/21 13:45:20;;;;;;;;;;;19.30;90.30;;;;;;5037437;28;20386;-75
2022/05/21 13:47:49;;;;;;;;;;;19.40;89.70;;;;;;5036413;28;19932;-74
2022/05/21 13:50:18;;;;;;;;;;;19.40;88.70;;;;;;5032017;28;21903;-74
2022/05/21 13:52:45;;;;;;;;;;;19.40;88.60;;;;;;5029982;28;19933;-75
2022/05/21 13:55:13;;;;;;;;;;;19.50;88.10;;;;;;5034554;28;19936;-74
2022/05/21 13:57:40;;;;;;;;;;;19.50;88.70;;;;;;5034887;28;19924;-74
2022/05/21 14:00:14;;;;;;;;;;;19.60;89.30;;;;;;5039808;28;19937;-73
2022/05/21 14:02:42;;;;;;;;;;;19.60;89.30;;;;;;5132107;22;20745;-77
2022/05/21 14:08:10;;;;;;;;;;;19.70;89.20;;;;;;5065963;22;20835;-76
2022/05/21 14:10:41;;;;;;;;;;;19.70;88.40;;;;;;5091793;22;19932;-76
2022/05/21 14:13:27;;;;;;;;;;;19.80;88.10;;;;;;5076001;28;19928;-76
2022/05/21 14:15:55;;;;;;;;;;;19.90;90.00;;;;;;5108589;22;20490;-76
2022/05/21 14:18:33;;;;;;;;;;;19.90;87.10;;;;;;4968623;28;19926;-77
2022/05/21 14:21:02;;;;;;;;;;;20.00;86.80;;;;;;4977134;28;19932;-77
2022/05/21 14:23:31;;;;;;;;;;;20.00;87.70;;;;;;4976471;28;19967;-77
2022/05/21 14:26:10;;;;;;;;;;;20.10;88.10;;;;;;4975859;28;19983;-77
2022/05/21 14:28:38;;;;;;;;;;;20.10;88.30;;;;;;4983067;28;19946;-76
2022/05/21 14:31:23;;;;;;;;;;;20.10;87.80;;;;;;4981396;28;19979;-77
2022/05/21 14:33:55;;;;;;;;;;;20.20;86.90;;;;;;4972894;28;20499;-76
2022/05/21 14:36:22;;;;;;;;;;;;;;;;;;4970668;28;19941;-76
2022/05/21 14:38:49;;;;;;;;;;;20.30;86.50;;;;;;4982162;28;20021;-76
2022/05/21 14:41:28;;;;;;;;;;;20.40;85.50;;;;;;4981988;28;19926;-75
2022/05/21 14:43:55;;;;;;;;;;;20.40;86.70;;;;;;4987587;28;19930;-75
2022/05/21 14:49:08;;;;;;;;;;;20.50;84.20;;;;;;4979156;28;19922;-75
2022/05/21 14:54:21;;;;;;;;;;;20.50;84.90;;;;;;4974458;28;19922;-76
2022/05/21 14:56:48;;;;;;;;;;;20.60;82.10;;;;;;4980923;28;20055;-76
2022/05/21 14:59:15;;;;;;;;;;;20.60;81.90;;;;;;4981611;28;19929;-76
2022/05/21 15:01:43;;;;;;;;;;;20.70;81.70;;;;;;4985754;28;19932;-77
2022/05/21 15:04:11;;;;;;;;;;;20.70;83.00;;;;;;4980232;28;19930;-78
2022/05/21 15:06:40;;;;;;;;;;;20.70;82.50;;;;;;4982028;28;19933;-75
2022/05/21 15:09:07;;;;;;;;;;;20.80;84.30;;;;;;4982766;28;19971;-76
2022/05/21 15:11:35;;;;;;;;;;;20.80;84.40;;;;;;4977829;28;19941;-76
2022/05/21 15:14:02;;;;;;;;;;;20.80;83.70;;;;;;4981206;28;19925;-75
2022/05/21 15:16:30;;;;;;;;;;;20.80;83.50;;;;;;4979205;28;19925;-76
2022/05/21 15:18:57;;;;;;;;;;;20.80;85.00;;;;;;4985001;28;21204;-76
2022/05/21 15:21:27;;;;;;;;;;;20.90;85.30;;;;;;4977818;28;20331;-76